Time;durP1;ratioP1;P1;durP2;ratioP2;P2;SDS_P1;SDS_P2;PMS_P1;PMS_P2;Temp;Humidity;BMP_temperature;BMP_pressure;BME280_temperature;BME280_humidity;BME280_pressure;Samples;Min_cycle;Max_cycle;Signal;HPM_P1;HPM_P2
2023/06/23 00:01:52;;;;;;;0.73;0.70;;;22.40;55.90;;;;;;6266967;28;20158;-73
2023/06/23 00:04:52;;;;;;;1.38;0.77;;;22.40;55.90;;;;;;6267390;28;20487;-73
2023/06/23 00:07:53;;;;;;;0.98;0.70;;;22.50;56.10;;;;;;6263647;28;20037;-73
2023/06/23 00:10:54;;;;;;;0.90;0.80;;;22.50;56.00;;;;;;6266979;28;20530;-73
2023/06/23 00:13:56;;;;;;;0.70;0.60;;;22.40;55.90;;;;;;6264146;28;20534;-73
2023/06/23 00:16:57;;;;;;;0.88;0.70;;;22.40;56.00;;;;;;6266775;28;20048;-73
2023/06/23 00:19:58;;;;;;;0.80;0.70;;;22.40;56.00;;;;;;6262041;28;20029;-72
2023/06/23 00:22:59;;;;;;;1.00;0.70;;;22.50;56.10;;;;;;6266907;28;20037;-73
2023/06/23 00:26:00;;;;;;;1.60;0.90;;;22.40;56.00;;;;;;6266712;28;20118;-73
2023/06/23 00:29:00;;;;;;;0.93;0.85;;;22.40;56.00;;;;;;6267925;28;20494;-72
2023/06/23 00:32:02;;;;;;;1.20;1.10;;;22.50;56.10;;;;;;6270679;28;20040;-73
2023/06/23 00:35:03;;;;;;;0.75;0.60;;;22.40;56.10;;;;;;6266857;28;20112;-73
2023/06/23 00:38:04;;;;;;;0.80;0.80;;;22.40;56.10;;;;;;6271607;28;20028;-73
2023/06/23 00:41:04;;;;;;;0.85;0.82;;;22.40;56.10;;;;;;6270639;28;20029;-73
2023/06/23 00:44:09;;;;;;;0.80;0.80;;;22.40;56.30;;;;;;6271531;28;20053;-73
2023/06/23 00:47:10;;;;;;;0.68;0.68;;;22.40;56.10;;;;;;6270835;28;20427;-73
2023/06/23 00:50:16;;;;;;;0.85;0.77;;;22.40;56.10;;;;;;6267678;28;20033;-73
2023/06/23 00:53:17;;;;;;;0.63;0.63;;;22.40;56.20;;;;;;6270852;28;20017;-72
2023/06/23 00:56:21;;;;;;;0.98;0.73;;;22.40;56.20;;;;;;6270585;28;20330;-73
2023/06/23 00:59:22;;;;;;;1.05;0.85;;;22.40;56.20;;;;;;6270618;28;20335;-73
2023/06/23 01:02:22;;;;;;;0.80;0.80;;;22.40;56.20;;;;;;6269776;28;20029;-73
2023/06/23 01:05:27;;;;;;;0.80;0.70;;;22.40;56.20;;;;;;6270740;28;20086;-73
2023/06/23 01:08:42;;;;;;;0.60;0.60;;;22.40;56.30;;;;;;6270737;28;20021;-73
2023/06/23 01:12:17;;;;;;;0.60;0.60;;;22.40;56.20;;;;;;6270049;28;20029;-73
2023/06/23 01:15:35;;;;;;;0.93;0.80;;;22.40;56.30;;;;;;6217371;28;20037;-73
2023/06/23 01:18:54;;;;;;;0.73;0.70;;;22.40;56.30;;;;;;6244872;28;20084;-73
2023/06/23 01:22:12;;;;;;;1.00;0.80;;;22.40;56.30;;;;;;6270316;28;20024;-73
2023/06/23 01:25:31;;;;;;;0.63;0.63;;;22.40;56.30;;;;;;6270724;28;20028;-73
2023/06/23 01:28:32;;;;;;;0.98;0.70;;;22.40;56.30;;;;;;6270198;28;20075;-73
2023/06/23 01:32:00;;;;;;;0.80;0.70;;;22.40;56.30;;;;;;6269895;28;20056;-73
2023/06/23 01:35:11;;;;;;;0.80;0.70;;;22.40;56.30;;;;;;6262760;28;20052;-73
2023/06/23 01:38:29;;;;;;;0.98;0.90;;;22.40;56.30;;;;;;6270311;28;20059;-73
2023/06/23 01:41:37;;;;;;;0.77;0.68;;;22.40;56.30;;;;;;6269564;28;20032;-73
2023/06/23 01:44:42;;;;;;;0.80;0.70;;;22.40;56.30;;;;;;6270035;28;20053;-73
2023/06/23 01:47:48;;;;;;;0.65;0.60;;;22.40;56.40;;;;;;6269695;28;20025;-73
2023/06/23 01:50:50;;;;;;;1.13;0.80;;;22.40;56.40;;;;;;6267142;28;20056;-73
2023/06/23 01:53:51;;;;;;;0.73;0.70;;;22.40;56.50;;;;;;6269440;28;20024;-73
2023/06/23 01:56:54;;;;;;;0.50;0.50;;;22.40;56.30;;;;;;6269838;28;20021;-73
2023/06/23 01:59:56;;;;;;;0.73;0.70;;;22.40;56.40;;;;;;6269634;28;20138;-73
2023/06/23 02:02:58;;;;;;;0.88;0.80;;;22.40;56.40;;;;;;6269495;28;20021;-73
2023/06/23 02:06:01;;;;;;;1.17;0.90;;;22.40;57.20;;;;;;6266626;28;20463;-73
2023/06/23 02:09:08;;;;;;;0.85;0.75;;;22.40;56.40;;;;;;6269223;28;20029;-73
2023/06/23 02:12:10;;;;;;;1.48;0.82;;;22.40;56.50;;;;;;6269277;28;20087;-73
2023/06/23 02:15:14;;;;;;;0.60;0.60;;;22.40;56.50;;;;;;6269584;28;20048;-73
2023/06/23 02:18:16;;;;;;;0.95;0.90;;;22.40;56.50;;;;;;6269239;28;20123;-73
2023/06/23 02:21:17;;;;;;;1.15;0.95;;;22.40;56.60;;;;;;6268857;28;20029;-73
2023/06/23 02:24:18;;;;;;;0.80;0.80;;;22.40;56.60;;;;;;6268832;28;20082;-73
2023/06/23 02:27:20;;;;;;;0.80;0.80;;;22.40;56.50;;;;;;6268832;28;20066;-72
2023/06/23 02:30:22;;;;;;;0.95;0.70;;;22.40;56.60;;;;;;6269147;28;20130;-73
2023/06/23 02:33:22;;;;;;;0.70;0.70;;;22.40;56.60;;;;;;6268329;28;20021;-73
2023/06/23 02:36:34;;;;;;;0.85;0.68;;;22.40;56.60;;;;;;6269593;28;20036;-73
2023/06/23 02:39:48;;;;;;;2.85;0.80;;;22.40;56.60;;;;;;6268461;28;20530;-73
2023/06/23 02:43:23;;;;;;;0.93;0.70;;;22.40;56.60;;;;;;6268520;28;20547;-73
2023/06/23 02:46:29;;;;;;;1.13;0.80;;;22.40;56.70;;;;;;6268654;28;20488;-74
2023/06/23 02:49:31;;;;;;;0.70;0.70;;;22.40;56.70;;;;;;6250913;28;20017;-73
2023/06/23 02:52:34;;;;;;;0.80;0.70;;;22.40;56.70;;;;;;6267345;28;20067;-73
2023/06/23 02:55:40;;;;;;;1.02;0.75;;;22.40;56.70;;;;;;6250670;28;20059;-73
2023/06/23 02:58:41;;;;;;;1.00;0.90;;;22.40;56.70;;;;;;6268031;28;20438;-73
2023/06/23 03:01:45;;;;;;;0.68;0.68;;;22.40;56.70;;;;;;6262219;28;20021;-73
2023/06/23 03:04:46;;;;;;;0.73;0.70;;;22.40;56.80;;;;;;6267958;28;20264;-73
2023/06/23 03:07:51;;;;;;;0.57;0.57;;;22.40;56.80;;;;;;6267917;28;20025;-73
2023/06/23 03:10:52;;;;;;;0.80;0.77;;;22.40;56.70;;;;;;6264840;28;20041;-73
2023/06/23 03:13:52;;;;;;;0.82;0.82;;;22.40;57.40;;;;;;6267810;28;20091;-73
2023/06/23 03:17:03;;;;;;;0.70;0.70;;;22.40;56.70;;;;;;6263070;28;20036;-73
2023/06/23 03:20:18;;;;;;;0.75;0.70;;;22.40;56.80;;;;;;6267952;28;20075;-73
2023/06/23 03:23:21;;;;;;;0.93;0.73;;;22.40;56.80;;;;;;6264518;28;20025;-73
2023/06/23 03:26:23;;;;;;;0.60;0.60;;;22.40;56.80;;;;;;6267622;28;20029;-73
2023/06/23 03:29:27;;;;;;;1.58;0.80;;;22.40;56.80;;;;;;6267365;28;20106;-73
2023/06/23 03:32:33;;;;;;;0.70;0.60;;;22.40;56.80;;;;;;6267820;28;20037;-74
2023/06/23 03:35:42;;;;;;;0.93;0.75;;;22.40;56.80;;;;;;6267935;28;20082;-73
2023/06/23 03:38:58;;;;;;;0.70;0.70;;;22.40;56.80;;;;;;6267388;28;20056;-73
2023/06/23 03:42:00;;;;;;;1.10;0.90;;;22.40;56.80;;;;;;6249547;28;20483;-73
2023/06/23 03:45:04;;;;;;;0.70;0.70;;;22.40;56.80;;;;;;6267961;28;20025;-73
2023/06/23 03:48:09;;;;;;;1.00;0.70;;;22.40;56.90;;;;;;6261863;28;20364;-73
2023/06/23 03:51:14;;;;;;;0.80;0.77;;;22.40;56.90;;;;;;6267945;28;20053;-73
2023/06/23 03:54:15;;;;;;;;;;;22.40;56.90;;;;;;6267342;28;20029;-72
2023/06/23 03:57:19;;;;;;;1.00;0.85;;;22.40;56.90;;;;;;6267254;28;20341;-73
2023/06/23 04:00:38;;;;;;;0.95;0.80;;;22.40;56.90;;;;;;6266656;28;20017;-73
2023/06/23 04:03:41;;;;;;;2.22;0.70;;;22.40;56.80;;;;;;6269028;28;20041;-73
2023/06/23 04:06:45;;;;;;;0.85;0.75;;;22.40;56.90;;;;;;6273064;28;20067;-73
2023/06/23 04:09:49;;;;;;;1.63;0.80;;;22.40;56.90;;;;;;6271839;28;20024;-72
2023/06/23 04:12:52;;;;;;;1.10;1.00;;;22.40;57.00;;;;;;6272220;28;20147;-73
2023/06/23 04:15:56;;;;;;;1.00;0.90;;;22.40;57.00;;;;;;6265142;28;20032;-73
2023/06/23 04:18:59;;;;;;;0.82;0.77;;;22.40;57.00;;;;;;6265353;28;20021;-73
2023/06/23 04:22:02;;;;;;;0.90;0.82;;;22.40;56.90;;;;;;6272023;28;20028;-73
2023/06/23 04:25:04;;;;;;;0.73;0.68;;;22.40;57.60;;;;;;6267358;28;20547;-73
2023/06/23 04:28:07;;;;;;;1.00;0.80;;;22.40;57.00;;;;;;6271732;28;20029;-73
2023/06/23 04:31:10;;;;;;;0.80;0.70;;;22.40;56.90;;;;;;6271308;28;20136;-73
2023/06/23 04:34:11;;;;;;;0.95;0.85;;;22.40;56.90;;;;;;6271678;28;20064;-73
2023/06/23 04:37:17;;;;;;;0.57;0.50;;;22.40;57.00;;;;;;6271807;28;20043;-73
2023/06/23 04:40:26;;;;;;;0.70;0.70;;;22.40;57.10;;;;;;6271307;28;20025;-73
2023/06/23 04:43:41;;;;;;;0.70;0.70;;;22.40;57.10;;;;;;6271552;28;20029;-72
2023/06/23 04:46:43;;;;;;;0.63;0.60;;;22.40;57.00;;;;;;6270977;28;20059;-73
2023/06/23 04:49:46;;;;;;;0.80;0.80;;;22.40;57.10;;;;;;6271358;28;20104;-73
2023/06/23 04:52:52;;;;;;;1.45;0.88;;;22.40;57.00;;;;;;6271236;28;20037;-73
2023/06/23 04:56:02;;;;;;;0.82;0.80;;;22.40;57.00;;;;;;6270905;28;20082;-73
2023/06/23 04:59:07;;;;;;;1.02;0.70;;;22.40;57.10;;;;;;6270707;28;20132;-73
2023/06/23 05:02:11;;;;;;;0.60;0.57;;;22.40;57.00;;;;;;6259620;28;20029;-73
2023/06/23 05:05:18;;;;;;;0.75;0.75;;;22.40;57.00;;;;;;6252761;28;20346;-72
2023/06/23 05:08:23;;;;;;;0.82;0.80;;;22.40;57.10;;;;;;6264449;28;20033;-73
2023/06/23 05:11:24;;;;;;;;;;;22.40;57.10;;;;;;6271224;28;20112;-73
2023/06/23 05:14:27;;;;;;;0.70;0.70;;;22.40;57.20;;;;;;6270428;28;20412;-75
2023/06/23 05:17:29;;;;;;;0.90;0.63;;;22.40;57.10;;;;;;6270895;28;20021;-72
2023/06/23 05:20:31;;;;;;;0.93;0.70;;;22.40;57.10;;;;;;6252076;28;20024;-72
2023/06/23 05:23:37;;;;;;;0.80;0.70;;;22.40;57.80;;;;;;6270824;28;20108;-73
2023/06/23 05:26:39;;;;;;;0.70;0.70;;;22.40;57.20;;;;;;6270016;28;20029;-73
2023/06/23 05:29:46;;;;;;;0.98;0.80;;;22.40;57.10;;;;;;6270584;28;20107;-73
2023/06/23 05:32:48;;;;;;;0.80;0.65;;;22.40;57.20;;;;;;6245298;28;20099;-73
2023/06/23 05:35:52;;;;;;;0.70;0.70;;;22.40;57.20;;;;;;6253879;28;20017;-73
2023/06/23 05:38:54;;;;;;;1.00;0.80;;;22.40;57.20;;;;;;6267454;28;20387;-72
2023/06/23 05:41:55;;;;;;;0.65;0.65;;;22.40;57.10;;;;;;6270051;28;20521;-72
2023/06/23 05:44:56;;;;;;;0.75;0.70;;;22.40;57.20;;;;;;6264904;28;20033;-73
2023/06/23 05:48:09;;;;;;;0.60;0.60;;;22.40;57.20;;;;;;6269888;28;20368;-73
2023/06/23 05:51:14;;;;;;;1.10;0.80;;;22.40;57.20;;;;;;6269735;28;20040;-73
2023/06/23 05:54:19;;;;;;;0.75;0.70;;;22.40;57.20;;;;;;6264827;28;20033;-73
2023/06/23 05:57:28;;;;;;;1.45;0.98;;;22.40;57.20;;;;;;6253894;28;20068;-73
2023/06/23 06:00:37;;;;;;;1.42;0.88;;;22.40;57.20;;;;;;6262730;28;20380;-73
2023/06/23 06:03:44;;;;;;;0.93;0.75;;;22.40;57.20;;;;;;6264761;28;20033;-74
2023/06/23 06:06:47;;;;;;;1.13;0.98;;;22.40;57.10;;;;;;6257581;28;20029;-74
2023/06/23 06:09:49;;;;;;;0.80;0.77;;;22.40;57.30;;;;;;6270678;28;20459;-73
2023/06/23 06:12:50;;;;;;;1.85;1.08;;;22.40;57.30;;;;;;6270498;28;20074;-73
2023/06/23 06:15:52;;;;;;;1.05;0.77;;;22.40;57.30;;;;;;6256881;28;20021;-73
2023/06/23 06:18:54;;;;;;;1.83;0.98;;;22.40;57.30;;;;;;6270506;28;20032;-73
2023/06/23 06:21:57;;;;;;;1.17;0.80;;;22.40;57.30;;;;;;6270033;28;20024;-73
2023/06/23 06:24:59;;;;;;;1.90;0.88;;;22.40;57.30;;;;;;6257762;28;20475;-73
2023/06/23 06:28:02;;;;;;;0.88;0.80;;;22.40;57.30;;;;;;6266400;28;20554;-73
2023/06/23 06:31:03;;;;;;;1.17;0.80;;;22.40;57.30;;;;;;6251610;28;20323;-72
2023/06/23 06:34:06;;;;;;;0.95;0.80;;;22.40;57.30;;;;;;6261970;28;20503;-73
2023/06/23 06:37:08;;;;;;;1.05;0.80;;;22.40;57.30;;;;;;6269960;28;20025;-73
2023/06/23 06:40:11;;;;;;;1.05;0.77;;;22.40;57.30;;;;;;6269743;28;20021;-73
2023/06/23 06:43:12;;;;;;;1.08;0.90;;;22.40;57.30;;;;;;6251916;28;20017;-72
2023/06/23 06:46:14;;;;;;;1.40;1.00;;;22.40;57.30;;;;;;6266255;28;20052;-73
2023/06/23 06:49:17;;;;;;;0.75;0.68;;;22.40;57.30;;;;;;6264981;28;20032;-72
2023/06/23 06:52:19;;;;;;;1.30;0.90;;;22.40;57.30;;;;;;6269364;28;20115;-73
2023/06/23 06:55:21;;;;;;;1.52;1.23;;;22.40;57.30;;;;;;6263196;28;20095;-72
2023/06/23 06:58:22;;;;;;;2.28;1.10;;;22.40;58.40;;;;;;6269098;28;20025;-72
2023/06/23 07:01:24;;;;;;;3.05;1.70;;;22.30;59.20;;;;;;6267448;28;20036;-72
2023/06/23 07:04:26;;;;;;;1.45;1.23;;;22.30;60.60;;;;;;6259273;28;20029;-73
2023/06/23 07:07:26;;;;;;;1.90;1.20;;;22.40;58.80;;;;;;6259817;28;20037;-73
2023/06/23 07:10:27;;;;;;;1.17;1.00;;;22.40;58.40;;;;;;6268859;28;20063;-73
2023/06/23 07:13:28;;;;;;;2.97;2.00;;;22.40;60.00;;;;;;6265754;28;20095;-72
2023/06/23 07:16:33;;;;;;;2.33;1.88;;;22.30;60.40;;;;;;6269275;28;20048;-72
2023/06/23 07:19:34;;;;;;;2.40;2.00;;;22.30;60.20;;;;;;6258613;28;20025;-73
2023/06/23 07:22:34;;;;;;;6.60;2.60;;;22.30;61.20;;;;;;6269670;28;20028;-73
2023/06/23 07:25:35;;;;;;;5.93;2.97;;;22.40;61.80;;;;;;6262462;28;20028;-72
2023/06/23 07:28:35;;;;;;;4.45;1.92;;;22.30;62.40;;;;;;6268505;28;20036;-73
2023/06/23 07:31:37;;;;;;;10.15;4.90;;;22.40;61.30;;;;;;6268400;28;20064;-73
2023/06/23 07:34:38;;;;;;;5.05;2.83;;;22.30;63.90;;;;;;6268980;28;20038;-73
2023/06/23 07:37:38;;;;;;;3.40;2.60;;;22.30;62.50;;;;;;6267943;28;20021;-73
2023/06/23 07:40:39;;;;;;;4.40;3.28;;;22.30;62.20;;;;;;6268364;28;20446;-72
2023/06/23 07:43:43;;;;;;;5.57;2.80;;;22.30;63.50;;;;;;6265364;28;20545;-72
2023/06/23 07:46:43;;;;;;;3.63;2.80;;;22.30;63.20;;;;;;6247669;28;20506;-73
2023/06/23 07:49:44;;;;;;;4.55;3.10;;;22.30;63.30;;;;;;6247096;28;20025;-72
2023/06/23 07:52:52;;;;;;;6.20;3.17;;;22.30;64.50;;;;;;6257196;28;20041;-72
2023/06/23 07:55:53;;;;;;;4.65;3.33;;;22.30;64.60;;;;;;6268024;28;20028;-73
2023/06/23 07:58:53;;;;;;;3.60;2.92;;;22.30;64.10;;;;;;6268371;28;20032;-73
2023/06/23 08:01:54;;;;;;;4.22;2.55;;;22.30;64.50;;;;;;6268469;28;20483;-73
2023/06/23 08:04:55;;;;;;;9.48;3.63;;;22.30;63.60;;;;;;6268100;28;20032;-73
2023/06/23 08:07:55;;;;;;;8.85;4.65;;;22.30;64.10;;;;;;6268733;28;20426;-72
2023/06/23 08:10:56;;;;;;;6.57;2.88;;;22.30;65.40;;;;;;6264850;28;20068;-73
2023/06/23 08:13:57;;;;;;;4.53;3.03;;;22.30;63.20;;;;;;6254161;28;20045;-73
2023/06/23 08:16:57;;;;;;;7.07;3.58;;;22.30;65.90;;;;;;6257613;28;20090;-72
2023/06/23 08:19:58;;;;;;;7.03;3.35;;;22.30;63.80;;;;;;6267877;28;20053;-72
2023/06/23 08:22:59;;;;;;;6.65;3.75;;;22.30;64.90;;;;;;6267970;28;20021;-72
2023/06/23 08:25:59;;;;;;;6.88;3.40;;;22.30;64.70;;;;;;6264913;28;20029;-71
2023/06/23 08:29:00;;;;;;;10.13;4.28;;;22.30;64.90;;;;;;6260550;28;20025;-72
2023/06/23 08:32:00;;;;;;;7.55;3.55;;;22.30;64.70;;;;;;6267757;28;20647;-72
2023/06/23 08:35:02;;;;;;;5.63;3.47;;;22.40;63.20;;;;;;6267756;28;20112;-72
2023/06/23 08:38:04;;;;;;;10.27;5.18;;;22.40;65.00;;;;;;6268032;28;20824;-72
2023/06/23 08:41:06;;;;;;;10.35;3.58;;;22.40;65.70;;;;;;6267533;28;20146;-72
2023/06/23 08:44:14;;;;;;;9.95;4.18;;;22.40;64.20;;;;;;6267880;28;20063;-72
2023/06/23 08:47:18;;;;;;;9.80;2.53;;;22.40;64.50;;;;;;6267671;28;20116;-72
2023/06/23 08:50:20;;;;;;;4.10;2.60;;;22.30;61.90;;;;;;6268164;28;20028;-72
2023/06/23 08:53:23;;;;;;;6.10;3.58;;;22.40;62.90;;;;;;6249778;28;20034;-72
2023/06/23 08:56:25;;;;;;;5.38;3.70;;;22.40;65.10;;;;;;6265957;28;20086;-73
2023/06/23 08:59:26;;;;;;;4.65;3.20;;;22.40;65.80;;;;;;6272766;28;20028;-72
2023/06/23 09:02:26;;;;;;;7.45;3.50;;;22.30;64.10;;;;;;6271529;28;20029;-72
2023/06/23 09:05:27;;;;;;;3.95;3.10;;;22.30;64.10;;;;;;6271766;28;20100;-72
2023/06/23 09:08:28;;;;;;;7.70;4.55;;;22.40;64.80;;;;;;6272552;28;20079;-72
2023/06/23 09:11:29;;;;;;;4.45;3.45;;;22.40;65.90;;;;;;6265572;28;20379;-72
2023/06/23 09:14:30;;;;;;;6.30;4.13;;;22.30;66.30;;;;;;6267746;28;20029;-72
2023/06/23 09:17:32;;;;;;;7.20;4.78;;;22.30;66.30;;;;;;6271585;28;20029;-72
2023/06/23 09:20:33;;;;;;;4.63;3.40;;;22.30;65.90;;;;;;6270406;28;20376;-72
2023/06/23 09:23:34;;;;;;;6.05;3.67;;;22.30;65.20;;;;;;6271563;28;20059;-72
2023/06/23 09:26:51;;;;;;;4.72;3.80;;;22.30;66.20;;;;;;6271171;28;20029;-72
2023/06/23 09:30:01;;;;;;;4.78;3.05;;;22.30;64.70;;;;;;6271141;28;20110;-72
2023/06/23 09:33:05;;;;;;;4.50;3.90;;;22.30;65.00;;;;;;6270908;28;20040;-72
2023/06/23 09:36:06;;;;;;;4.53;3.90;;;22.30;66.10;;;;;;6269715;28;20290;-72
2023/06/23 09:39:14;;;;;;;5.63;4.75;;;22.30;66.70;;;;;;6271395;28;20025;-72
2023/06/23 09:42:15;;;;;;;5.18;4.63;;;22.30;66.20;;;;;;6270607;28;20075;-72
2023/06/23 09:45:17;;;;;;;5.32;4.10;;;22.30;66.30;;;;;;6271284;28;20044;-72
2023/06/23 09:48:18;;;;;;;5.20;4.18;;;22.30;65.50;;;;;;6270586;28;20032;-72
2023/06/23 09:51:19;;;;;;;4.65;3.70;;;22.30;65.80;;;;;;6264721;28;20124;-72
2023/06/23 09:54:37;;;;;;;8.00;5.68;;;22.30;65.00;;;;;;6271366;28;20071;-72
2023/06/23 09:57:37;;;;;;;7.75;3.90;;;22.30;65.90;;;;;;6252262;28;20131;-72
2023/06/23 10:00:38;;;;;;;6.43;4.60;;;22.30;64.10;;;;;;6252559;28;20009;-72
2023/06/23 10:03:43;;;;;;;6.28;4.75;;;22.30;64.30;;;;;;6270208;28;20116;-72
2023/06/23 10:06:43;;;;;;;;;;;22.30;64.00;;;;;;6271012;28;20108;-72
2023/06/23 10:09:52;;;;;;;7.22;4.63;;;22.30;65.20;;;;;;6270472;28;19920;-72
2023/06/23 10:12:53;;;;;;;7.57;5.05;;;22.30;64.80;;;;;;6270484;28;20033;-72
2023/06/23 10:15:54;;;;;;;10.13;5.63;;;22.30;65.20;;;;;;6270489;28;20033;-72
2023/06/23 10:18:55;;;;;;;9.60;4.93;;;22.40;65.40;;;;;;6270458;28;20019;-72
2023/06/23 10:21:55;;;;;;;9.10;5.50;;;22.30;65.70;;;;;;6256361;28;20025;-72
2023/06/23 10:24:59;;;;;;;6.70;4.80;;;22.30;65.80;;;;;;6270748;28;20067;-72
2023/06/23 10:28:05;;;;;;;6.05;5.00;;;22.30;65.80;;;;;;6269770;28;20021;-72
2023/06/23 10:31:07;;;;;;;7.32;5.15;;;22.40;64.90;;;;;;6269525;28;20049;-72
2023/06/23 10:34:12;;;;;;;8.50;5.88;;;22.40;65.90;;;;;;6263686;28;20028;-72
2023/06/23 10:37:15;;;;;;;5.72;4.70;;;22.40;67.40;;;;;;6269302;28;20040;-72
2023/06/23 10:40:22;;;;;;;6.18;4.63;;;22.40;67.40;;;;;;6270168;28;20471;-71
2023/06/23 10:43:27;;;;;;;8.95;5.20;;;22.30;66.60;;;;;;6269351;28;20462;-72
2023/06/23 10:46:27;;;;;;;6.63;4.90;;;22.30;66.40;;;;;;6270320;28;20032;-72
2023/06/23 10:49:28;;;;;;;7.57;5.45;;;22.40;66.20;;;;;;6269311;28;20356;-72
2023/06/23 10:52:29;;;;;;;7.03;5.30;;;22.30;65.50;;;;;;6269046;28;20115;-72
2023/06/23 10:55:44;;;;;;;11.25;6.15;;;22.40;67.60;;;;;;6269454;28;20021;-72
2023/06/23 10:58:51;;;;;;;9.55;6.03;;;22.40;67.90;;;;;;6269305;28;20033;-72
2023/06/23 11:02:01;;;;;;;12.10;6.35;;;22.40;67.70;;;;;;6269234;28;20029;-72
2023/06/23 11:05:05;;;;;;;7.68;5.65;;;22.30;67.20;;;;;;6265975;28;20065;-72
2023/06/23 11:08:10;;;;;;;8.75;6.82;;;22.40;66.50;;;;;;6268886;28;20025;-72
2023/06/23 11:11:11;;;;;;;10.38;7.00;;;22.30;66.60;;;;;;6265276;28;20052;-71
2023/06/23 11:14:15;;;;;;;10.23;7.90;;;22.40;67.80;;;;;;6268316;28;20369;-71
2023/06/23 11:17:20;;;;;;;10.20;6.90;;;22.40;66.50;;;;;;6269042;28;20163;-71
2023/06/23 11:20:30;;;;;;;10.48;7.55;;;22.40;66.90;;;;;;6269189;28;20491;-72
2023/06/23 11:23:31;;;;;;;13.50;7.95;;;22.30;66.80;;;;;;6267679;28;20029;-71
2023/06/23 11:26:31;;;;;;;8.63;7.05;;;22.40;67.30;;;;;;6268878;28;20025;-71
2023/06/23 11:29:32;;;;;;;14.75;7.82;;;22.40;67.20;;;;;;6241350;28;20119;-71
2023/06/23 11:32:32;;;;;;;10.93;7.57;;;22.40;67.00;;;;;;6270051;28;20452;-71
2023/06/23 11:35:34;;;;;;;10.05;7.10;;;22.40;65.70;;;;;;6264771;28;20049;-71
2023/06/23 11:38:37;;;;;;;13.73;6.30;;;22.50;66.60;;;;;;6270307;28;20029;-71
2023/06/23 11:41:38;;;;;;;9.93;6.40;;;22.50;65.60;;;;;;6270536;28;20024;-72
2023/06/23 11:44:39;;;;;;;7.93;6.32;;;22.50;65.40;;;;;;6269558;28;20044;-72
2023/06/23 11:47:40;;;;;;;12.00;6.50;;;22.60;64.90;;;;;;6269695;28;20032;-72
2023/06/23 11:50:42;;;;;;;7.15;5.60;;;22.50;64.50;;;;;;6258729;28;20064;-73
2023/06/23 11:53:44;;;;;;;8.05;5.25;;;22.60;63.80;;;;;;6265871;28;20056;-73
2023/06/23 11:56:45;;;;;;;10.80;6.18;;;22.50;63.70;;;;;;6269758;28;20113;-73
2023/06/23 11:59:46;;;;;;;7.85;5.88;;;22.50;63.50;;;;;;6256820;28;20025;-73
2023/06/23 12:02:49;;;;;;;8.77;5.50;;;22.50;63.40;;;;;;6269699;28;20017;-73
2023/06/23 12:05:50;;;;;;;6.22;5.20;;;22.50;63.30;;;;;;6269600;28;20544;-73
2023/06/23 12:08:51;;;;;;;6.78;5.20;;;22.50;63.20;;;;;;6269410;28;20031;-73
2023/06/23 12:11:53;;;;;;;7.60;5.38;;;22.50;63.00;;;;;;6270245;28;20487;-75
2023/06/23 12:15:02;;;;;;;7.70;5.25;;;22.50;62.90;;;;;;6269673;28;20074;-72
2023/06/23 12:18:04;;;;;;;7.30;4.88;;;22.50;62.90;;;;;;6270095;28;20025;-73
2023/06/23 12:21:06;;;;;;;5.65;4.85;;;22.50;62.60;;;;;;6268647;28;20017;-74
2023/06/23 12:24:10;;;;;;;5.65;4.68;;;22.50;62.60;;;;;;6268352;28;20083;-73
2023/06/23 12:27:11;;;;;;;6.33;4.47;;;22.40;62.40;;;;;;6274135;28;20051;-72
2023/06/23 12:30:19;;;;;;;6.60;4.38;;;22.50;62.30;;;;;;6273466;28;20049;-73
2023/06/23 12:33:22;;;;;;;6.82;4.85;;;22.50;62.20;;;;;;6273864;28;20491;-72
2023/06/23 12:36:25;;;;;;;6.15;4.05;;;22.50;62.20;;;;;;6273791;28;20048;-72
2023/06/23 12:39:29;;;;;;;5.90;4.60;;;22.50;62.00;;;;;;6273283;28;20029;-73
2023/06/23 12:42:29;;;;;;;6.25;4.05;;;22.40;62.30;;;;;;6273977;28;20027;-72
2023/06/23 12:45:35;;;;;;;7.57;4.40;;;22.40;63.60;;;;;;6273286;28;20024;-72
2023/06/23 12:48:38;;;;;;;6.95;4.68;;;22.40;63.90;;;;;;6273132;28;20055;-73
2023/06/23 12:51:39;;;;;;;7.40;4.60;;;22.30;64.00;;;;;;6272941;28;20064;-72
2023/06/23 12:54:40;;;;;;;8.02;3.85;;;22.30;64.40;;;;;;6272789;28;20029;-72
2023/06/23 12:57:44;;;;;;;6.78;3.78;;;22.30;64.60;;;;;;6272640;28;20021;-72
2023/06/23 13:00:45;;;;;;;6.50;4.18;;;22.30;64.70;;;;;;6272309;28;20064;-72
2023/06/23 13:03:48;;;;;;;6.57;4.07;;;22.30;64.80;;;;;;6272204;28;20535;-72
2023/06/23 13:06:50;;;;;;;6.38;3.95;;;22.30;65.10;;;;;;6268214;28;20100;-73
2023/06/23 13:09:50;;;;;;;7.45;4.20;;;22.30;65.60;;;;;;6270829;28;20025;-73
2023/06/23 13:12:51;;;;;;;9.30;4.20;;;22.30;65.80;;;;;;6272068;28;20090;-72
2023/06/23 13:15:52;;;;;;;14.27;4.63;;;22.30;65.90;;;;;;6270944;28;20036;-73
2023/06/23 13:18:52;;;;;;;8.20;4.80;;;22.30;66.00;;;;;;6272476;28;20659;-72
2023/06/23 13:21:53;;;;;;;6.85;3.88;;;22.30;66.30;;;;;;6272503;28;20040;-73
2023/06/23 13:24:57;;;;;;;6.57;3.67;;;22.30;66.30;;;;;;6272685;28;20025;-72
2023/06/23 13:27:57;;;;;;;9.52;4.07;;;22.30;66.40;;;;;;6250255;28;20112;-72
2023/06/23 13:30:58;;;;;;;7.63;4.05;;;22.20;66.60;;;;;;6272225;28;20049;-74
2023/06/23 13:33:59;;;;;;;8.88;4.00;;;22.20;66.70;;;;;;6272551;28;20025;-72
2023/06/23 13:36:59;;;;;;;8.80;4.55;;;22.20;66.60;;;;;;6271887;28;20023;-73
2023/06/23 13:40:03;;;;;;;10.55;4.20;;;22.20;66.70;;;;;;6271828;28;20521;-72
2023/06/23 13:43:04;;;;;;;8.45;4.10;;;22.20;66.60;;;;;;6272116;28;20031;-72
2023/06/23 13:46:06;;;;;;;13.27;4.25;;;22.20;66.60;;;;;;6254189;28;20051;-73
2023/06/23 13:49:08;;;;;;;6.40;3.72;;;22.20;66.50;;;;;;6271907;28;20025;-73
2023/06/23 13:52:08;;;;;;;9.82;3.88;;;22.20;66.50;;;;;;6271450;28;20065;-73
2023/06/23 13:55:14;;;;;;;8.90;3.83;;;22.20;66.40;;;;;;6272148;28;20379;-73
2023/06/23 13:58:14;;;;;;;8.43;3.60;;;22.20;66.40;;;;;;6271466;28;20027;-73
2023/06/23 14:01:15;;;;;;;7.68;3.95;;;22.20;66.20;;;;;;6271329;28;20025;-72
2023/06/23 14:04:16;;;;;;;12.23;4.20;;;22.20;66.00;;;;;;6271712;28;20111;-72
2023/06/23 14:07:17;;;;;;;5.97;3.47;;;22.20;65.70;;;;;;6270997;28;20025;-72
2023/06/23 14:10:17;;;;;;;6.40;3.30;;;22.30;65.30;;;;;;6270694;28;20036;-73
2023/06/23 14:13:18;;;;;;;7.97;3.70;;;22.20;64.80;;;;;;6271108;28;20033;-73
2023/06/23 14:16:19;;;;;;;6.78;3.80;;;22.20;64.30;;;;;;6260911;28;20071;-73
2023/06/23 14:19:19;;;;;;;5.97;3.00;;;22.20;64.10;;;;;;6253362;28;20056;-72
2023/06/23 14:22:20;;;;;;;8.00;3.05;;;22.30;64.30;;;;;;6264902;28;20025;-72
2023/06/23 14:25:20;;;;;;;6.70;3.53;;;22.20;64.10;;;;;;6269282;28;20017;-71
2023/06/23 14:28:21;;;;;;;5.78;2.97;;;22.30;64.40;;;;;;6270354;28;20029;-72
2023/06/23 14:31:22;;;;;;;10.70;3.15;;;22.40;63.90;;;;;;6270728;28;20051;-73
2023/06/23 14:34:23;;;;;;;9.35;3.47;;;22.50;63.50;;;;;;6271283;28;20025;-72
2023/06/23 14:37:23;;;;;;;7.18;3.15;;;22.60;63.50;;;;;;6270838;28;20040;-73
2023/06/23 14:40:24;;;;;;;6.93;3.35;;;22.50;63.70;;;;;;6270712;28;20029;-73
2023/06/23 14:43:25;;;;;;;5.38;3.25;;;22.50;64.10;;;;;;6270291;28;20055;-73
2023/06/23 14:46:25;;;;;;;5.18;3.20;;;22.50;63.90;;;;;;6270730;28;20484;-72
2023/06/23 14:49:26;;;;;;;4.60;2.90;;;22.50;63.80;;;;;;6262774;28;20017;-72
2023/06/23 14:52:27;;;;;;;6.90;3.25;;;22.50;63.80;;;;;;6270432;28;20120;-72
2023/06/23 14:55:27;;;;;;;4.43;2.92;;;22.50;63.70;;;;;;6270275;28;20021;-72
2023/06/23 14:58:28;;;;;;;4.63;2.85;;;22.50;63.50;;;;;;6270226;28;20487;-72
2023/06/23 15:01:28;;;;;;;4.25;2.80;;;22.50;63.50;;;;;;6269894;28;20028;-72
2023/06/23 15:04:29;;;;;;;4.07;2.83;;;22.50;63.40;;;;;;6270988;28;20017;-72
2023/06/23 15:07:30;;;;;;;5.80;3.00;;;22.50;63.40;;;;;;6270097;28;20450;-72
2023/06/23 15:10:31;;;;;;;4.78;3.05;;;22.50;63.70;;;;;;6270137;28;20053;-72
2023/06/23 15:13:31;;;;;;;5.93;3.20;;;22.50;63.90;;;;;;6270137;28;20036;-72
2023/06/23 15:16:32;;;;;;;5.45;2.63;;;22.50;63.90;;;;;;6270441;28;20017;-72
2023/06/23 15:19:33;;;;;;;4.03;2.90;;;22.50;64.00;;;;;;6269633;28;20525;-72
2023/06/23 15:22:33;;;;;;;7.22;2.83;;;22.50;63.90;;;;;;6268009;28;20040;-72
2023/06/23 15:25:34;;;;;;;4.70;2.97;;;22.50;63.80;;;;;;6265201;28;20104;-72
2023/06/23 15:28:35;;;;;;;4.05;3.10;;;22.50;63.90;;;;;;6266230;28;20021;-72
2023/06/23 15:31:36;;;;;;;4.28;2.63;;;22.50;64.10;;;;;;6269174;28;20052;-72
2023/06/23 15:34:37;;;;;;;5.13;2.75;;;22.50;63.90;;;;;;6269906;28;20022;-72
2023/06/23 15:37:39;;;;;;;5.32;3.05;;;22.50;64.10;;;;;;6268980;28;20546;-72
2023/06/23 15:40:40;;;;;;;4.35;2.90;;;22.50;64.00;;;;;;6269657;28;20021;-72
2023/06/23 15:43:40;;;;;;;8.48;3.10;;;22.50;64.10;;;;;;6269271;28;20432;-72
2023/06/23 15:46:41;;;;;;;5.45;2.78;;;22.50;64.10;;;;;;6269540;28;20053;-72
2023/06/23 15:49:42;;;;;;;4.57;3.17;;;22.50;64.10;;;;;;6268498;28;20166;-72
2023/06/23 15:52:43;;;;;;;5.75;3.10;;;22.60;64.20;;;;;;6230796;28;20049;-73
2023/06/23 15:55:43;;;;;;;4.20;2.80;;;22.60;64.10;;;;;;6269549;28;20029;-73